Goode, Virginia
Current Conditions -  °F | °C
As of 4:54 AM on Saturday 22 Nov 2014 (Local Time) from KLYH Reporting Station
Clear Clear  
Wind Chill: 19°   Ceiling: Unl
Heat Index: 19°   Visibility: NA
Dew Point: 11°   Wind: 0mph
Humidity: 71%   Direction: NA
Pressure: 30.52"   Gusts: NA
Location:  37.36°N, 79.39°W
Report Text: KLYH 220954Z AUTO 00000KT CLR M07/M12 A3052 RMK AO2 SLP343 T10721117 $
Loading
Personal Weather Stations






























Interactive Weather Map New forecast layout! Learn more

10-Day Weather Forecast

Advertisements
Track Severe Weather on mobile